createdAt,value
2023-03-11T00:02:33.386Z,4.2
2023-03-11T00:07:33.383Z,4.2
2023-03-11T00:12:33.383Z,4.2
2023-03-11T00:17:33.414Z,4.1
2023-03-11T00:22:33.384Z,4.1
2023-03-11T00:27:33.385Z,4.1
2023-03-11T00:32:33.414Z,4.1
2023-03-11T00:37:33.403Z,4.1
2023-03-11T00:42:33.399Z,4
2023-03-11T00:47:33.382Z,4
2023-03-11T00:52:33.501Z,3.9
2023-03-11T00:57:33.401Z,3.9
2023-03-11T01:02:33.391Z,3.9
2023-03-11T01:07:33.367Z,3.8
2023-03-11T01:12:33.406Z,3.8
2023-03-11T01:17:33.417Z,3.8
2023-03-11T01:22:33.401Z,3.8
2023-03-11T01:27:33.372Z,3.7
2023-03-11T01:32:33.422Z,3.7
2023-03-11T01:37:33.412Z,3.6
2023-03-11T01:42:33.669Z,3.6
2023-03-11T01:47:33.365Z,3.6
2023-03-11T01:52:33.400Z,3.6
2023-03-11T01:57:33.414Z,3.6
2023-03-11T02:02:33.412Z,3.5
2023-03-11T02:07:33.379Z,3.5
2023-03-11T02:12:33.394Z,3.4
2023-03-11T02:17:33.419Z,3.4
2023-03-11T02:22:33.438Z,3.4
2023-03-11T02:27:33.400Z,3.4
2023-03-11T02:32:33.498Z,3.3
2023-03-11T02:37:33.420Z,3.3
2023-03-11T02:42:33.571Z,3.3
2023-03-11T02:47:33.427Z,3.3
2023-03-11T02:52:33.429Z,3.2
2023-03-11T02:57:33.418Z,3.2
2023-03-11T03:02:33.402Z,3.2
2023-03-11T03:07:33.394Z,3.1
2023-03-11T03:12:33.436Z,3.1
2023-03-11T03:17:33.472Z,3.1
2023-03-11T03:22:33.410Z,3.1
2023-03-11T03:27:33.416Z,3.1
2023-03-11T03:32:33.429Z,3.1
2023-03-11T03:37:33.432Z,3
2023-03-11T03:42:33.928Z,3
2023-03-11T03:47:33.408Z,3
2023-03-11T03:52:33.413Z,2.9
2023-03-11T03:57:33.506Z,2.9
2023-03-11T04:02:33.457Z,2.9
2023-03-11T04:07:33.413Z,2.9
2023-03-11T04:12:33.431Z,2.9
2023-03-11T04:17:33.454Z,2.9
2023-03-11T04:22:33.438Z,2.9
2023-03-11T04:27:33.418Z,2.9
2023-03-11T04:32:33.479Z,2.9
2023-03-11T04:37:33.452Z,2.9
2023-03-11T04:42:33.432Z,2.8
2023-03-11T04:47:33.414Z,2.8
2023-03-11T04:52:33.441Z,2.8
2023-03-11T04:57:33.444Z,2.8
2023-03-11T05:02:33.401Z,2.8
2023-03-11T05:07:33.410Z,2.8
2023-03-11T05:12:33.434Z,2.8
2023-03-11T05:17:33.444Z,2.8
2023-03-11T05:22:33.419Z,2.8
2023-03-11T05:27:33.443Z,2.8
2023-03-11T05:32:33.519Z,2.8
2023-03-11T05:37:33.444Z,2.8
2023-03-11T05:42:33.446Z,2.7
2023-03-11T05:47:33.418Z,2.7
2023-03-11T05:52:33.458Z,2.7
2023-03-11T05:57:33.455Z,2.7
2023-03-11T06:02:33.440Z,2.7
2023-03-11T06:07:33.429Z,2.7
2023-03-11T06:12:33.468Z,2.7
2023-03-11T06:17:33.460Z,2.7
2023-03-11T06:22:33.435Z,2.7
2023-03-11T06:27:33.423Z,2.7
2023-03-11T06:32:33.522Z,2.7
2023-03-11T06:37:33.460Z,2.7
2023-03-11T06:42:33.452Z,2.7
2023-03-11T06:47:33.436Z,2.7
2023-03-11T06:52:33.468Z,2.7
2023-03-11T06:57:33.480Z,2.7
2023-03-11T07:02:33.472Z,2.7
2023-03-11T07:07:33.474Z,2.7
2023-03-11T07:12:33.487Z,2.7
2023-03-11T07:17:33.501Z,2.7
2023-03-11T07:22:33.476Z,2.7
2023-03-11T07:27:33.483Z,2.7
2023-03-11T07:32:33.522Z,2.7
2023-03-11T07:37:33.508Z,2.7
2023-03-11T07:42:33.813Z,2.7
2023-03-11T07:47:33.473Z,2.7
2023-03-11T07:52:33.481Z,2.7
2023-03-11T07:57:33.519Z,2.7
2023-03-11T08:02:33.513Z,2.7
2023-03-11T08:07:33.463Z,2.7
2023-03-11T08:12:33.488Z,2.8
2023-03-11T08:17:33.521Z,2.8
2023-03-11T08:22:33.482Z,2.8
2023-03-11T08:27:33.475Z,2.8
2023-03-11T08:32:33.554Z,2.8
2023-03-11T08:37:33.509Z,2.8
2023-03-11T08:42:33.516Z,2.8
2023-03-11T08:47:33.476Z,2.9
2023-03-11T08:52:33.500Z,2.9
2023-03-11T08:57:33.512Z,2.9
2023-03-11T09:02:33.505Z,2.9
2023-03-11T09:07:33.480Z,2.9
2023-03-11T09:12:33.493Z,2.9
2023-03-11T09:17:33.527Z,3
2023-03-11T09:22:33.500Z,3
2023-03-11T09:27:33.510Z,3.1
2023-03-11T09:32:33.553Z,3.1
2023-03-11T09:37:33.584Z,3.1
2023-03-11T09:42:33.536Z,3.1
2023-03-11T09:47:33.497Z,3.1
2023-03-11T09:52:33.513Z,3.2
2023-03-11T09:57:33.521Z,3.2
2023-03-11T10:02:33.597Z,3.2
2023-03-11T10:07:33.495Z,3.3
2023-03-11T10:12:33.512Z,3.3
2023-03-11T10:17:33.529Z,3.3
2023-03-11T10:22:33.495Z,3.3
2023-03-11T10:27:33.505Z,3.3
2023-03-11T10:32:33.578Z,3.3
2023-03-11T10:37:48.187Z,3.4
2023-03-11T10:42:33.754Z,3.4
2023-03-11T10:47:33.636Z,3.4
2023-03-11T10:52:33.649Z,3.4
2023-03-11T10:57:33.789Z,3.4
2023-03-11T11:02:33.791Z,3.4
2023-03-11T11:07:33.778Z,3.4
2023-03-11T11:12:33.843Z,3.4
2023-03-11T11:17:33.923Z,3.5
2023-03-11T11:22:33.978Z,3.5
2023-03-11T11:27:34.071Z,3.6
2023-03-11T11:32:34.047Z,3.6
2023-03-11T11:37:33.990Z,3.6
2023-03-11T11:42:34.236Z,3.6
2023-03-11T11:47:34.004Z,3.7
2023-03-11T11:52:33.954Z,3.7
2023-03-11T11:57:33.870Z,3.8
2023-03-11T12:02:33.918Z,3.8
2023-03-11T12:07:33.864Z,3.8
2023-03-11T12:12:33.910Z,3.8
2023-03-11T12:17:33.868Z,3.9
2023-03-11T12:22:33.872Z,3.9
2023-03-11T12:27:33.869Z,3.9
2023-03-11T12:32:34.116Z,3.9
2023-03-11T12:37:33.869Z,3.9
2023-03-11T12:42:33.948Z,3.9
2023-03-11T12:47:35.666Z,4
2023-03-11T12:52:33.890Z,4
2023-03-11T12:57:33.859Z,4
2023-03-11T13:02:33.950Z,4
2023-03-11T13:07:33.851Z,4.1
2023-03-11T13:12:33.843Z,4.1
2023-03-11T13:17:33.890Z,4.1
2023-03-11T13:22:33.874Z,4.2
2023-03-11T13:27:33.840Z,4.2
2023-03-11T13:32:33.904Z,4.3
2023-03-11T13:37:33.850Z,4.3
2023-03-11T13:42:33.846Z,4.3
2023-03-11T13:47:33.857Z,4.3
2023-03-11T13:52:33.855Z,4.4
2023-03-11T13:57:33.854Z,4.4
2023-03-11T14:02:33.882Z,4.4
2023-03-11T14:07:33.881Z,4.4
2023-03-11T14:12:33.946Z,4.5
2023-03-11T14:17:33.909Z,4.6
2023-03-11T14:22:33.948Z,4.7
2023-03-11T14:27:33.909Z,4.8
2023-03-11T14:32:34.189Z,4.9
2023-03-11T14:37:33.947Z,5
2023-03-11T14:42:33.979Z,5.1
2023-03-11T14:47:33.971Z,5.2
2023-03-11T14:52:33.989Z,5.3
2023-03-11T14:57:34.036Z,5.3
2023-03-11T15:02:34.010Z,5.4
2023-03-11T15:07:34.666Z,5.4
2023-03-11T15:12:34.046Z,5.6
2023-03-11T15:17:41.064Z,5.6
2023-03-11T15:22:34.055Z,5.8
2023-03-11T15:27:34.095Z,5.8
2023-03-11T15:32:34.113Z,5.9
2023-03-11T15:37:34.134Z,6.1
2023-03-11T15:42:34.175Z,6.1
2023-03-11T15:47:34.110Z,6.1
2023-03-11T15:52:34.134Z,6.1
2023-03-11T15:57:34.132Z,6.1
2023-03-11T16:02:34.141Z,6.2
2023-03-11T16:07:39.730Z,6.1
2023-03-11T16:12:34.098Z,6.1
2023-03-11T16:17:47.042Z,6.1
2023-03-11T16:22:34.072Z,6.1
2023-03-11T16:27:34.082Z,6.1
2023-03-11T16:32:34.104Z,6
2023-03-11T16:37:34.096Z,6
2023-03-11T16:42:34.123Z,5.9
2023-03-11T16:47:34.063Z,5.9
2023-03-11T16:52:34.207Z,5.8
2023-03-11T16:57:34.086Z,5.8
2023-03-11T17:02:34.128Z,5.7
2023-03-11T17:07:34.080Z,5.7
2023-03-11T17:12:34.064Z,5.6
2023-03-11T17:17:34.092Z,5.5
2023-03-11T17:22:34.077Z,5.4
2023-03-11T17:27:34.059Z,5.4
2023-03-11T17:32:34.180Z,5.3
2023-03-11T17:37:34.082Z,5.3
2023-03-11T17:42:34.073Z,5.2
2023-03-11T17:47:34.057Z,5.1
2023-03-11T17:52:34.060Z,5.1
2023-03-11T17:57:42.885Z,5
2023-03-11T18:02:34.054Z,4.9
2023-03-11T18:07:34.053Z,4.9
2023-03-11T18:12:34.041Z,4.8
2023-03-11T18:17:34.156Z,4.8
2023-03-11T18:22:35.338Z,4.7
2023-03-11T18:27:34.043Z,4.6
2023-03-11T18:32:34.051Z,4.6
2023-03-11T18:37:34.153Z,4.5
2023-03-11T18:42:34.040Z,4.4
2023-03-11T18:47:34.063Z,4.4
2023-03-11T18:52:34.097Z,4.3
2023-03-11T18:57:34.060Z,4.3
2023-03-11T19:02:34.053Z,4.2
2023-03-11T19:07:34.045Z,4.1
2023-03-11T19:12:34.034Z,4.1
2023-03-11T19:17:34.066Z,4
2023-03-11T19:22:34.049Z,3.9
2023-03-11T19:27:34.039Z,3.9
2023-03-11T19:32:34.062Z,3.9
2023-03-11T19:37:34.063Z,3.8
2023-03-11T19:42:34.038Z,3.8
2023-03-11T19:47:34.047Z,3.7
2023-03-11T19:52:34.033Z,3.7
2023-03-11T19:57:34.123Z,3.6
2023-03-11T20:02:34.119Z,3.6
2023-03-11T20:07:34.105Z,3.5
2023-03-11T20:12:34.133Z,3.5
2023-03-11T20:17:34.094Z,3.4
2023-03-11T20:22:34.105Z,3.4
2023-03-11T20:27:34.062Z,3.4
2023-03-11T20:32:34.109Z,3.3
2023-03-11T20:37:34.163Z,3.3
2023-03-11T20:42:34.067Z,3.3
2023-03-11T20:47:34.032Z,3.2
2023-03-11T20:52:34.078Z,3.2
2023-03-11T20:57:34.150Z,3.1
2023-03-11T21:02:34.159Z,3.1
2023-03-11T21:07:34.117Z,3.1
2023-03-11T21:12:34.009Z,3.1
2023-03-11T21:17:34.153Z,3
2023-03-11T21:22:34.309Z,3
2023-03-11T21:27:34.080Z,2.9
2023-03-11T21:32:34.287Z,2.9
2023-03-11T21:37:34.196Z,2.9
2023-03-11T21:42:34.182Z,2.9
2023-03-11T21:47:34.220Z,2.8
2023-03-11T21:52:34.137Z,2.8
2023-03-11T21:57:34.102Z,2.8
2023-03-11T22:02:34.161Z,2.8
2023-03-11T22:07:34.089Z,2.8
2023-03-11T22:12:34.203Z,2.8
2023-03-11T22:17:34.269Z,2.7
2023-03-11T22:22:34.066Z,2.7
2023-03-11T22:27:34.054Z,2.7
2023-03-11T22:32:34.146Z,2.7
2023-03-11T22:37:34.166Z,2.6
2023-03-11T22:42:34.086Z,2.6
2023-03-11T22:47:34.103Z,2.6
2023-03-11T22:52:34.112Z,2.6
2023-03-11T22:57:34.125Z,2.6
2023-03-11T23:02:34.108Z,2.6
2023-03-11T23:07:34.093Z,2.5
2023-03-11T23:12:34.168Z,2.5
2023-03-11T23:17:34.111Z,2.5
2023-03-11T23:22:34.085Z,2.5
2023-03-11T23:27:34.105Z,2.4
2023-03-11T23:32:34.177Z,2.4
2023-03-11T23:37:34.125Z,2.4
2023-03-11T23:42:34.080Z,2.4
2023-03-11T23:47:34.082Z,2.4
2023-03-11T23:52:34.091Z,2.4
2023-03-11T23:57:34.104Z,2.4
